Tiempo atmosférico en la estación meteorológica de Albox, Almería (508 m.)



Fecha
DESCASC
Temp. máxima en grados centígrados (hora)
DESCASC
Temp. mínima en grados centígrados (hora)
DESCASC
Temp. media en grados centígrados
DESCASC
Racha de viento máxima en m/sg (hora)
DESCASC
Velocidad máxima media en intervalos de 10 minutos(hora)
DESCASC
Precipitaciones diarias en mm
DESCASC
Precipitaciones de 00:00 a 06:00 en mm
DESCASC
Precipitaciones de 06:00 a 12:00 en mm
DESCASC
Precipitaciones de 12:00 a 18:00 en mm
DESCASC
Precipitaciones de 18:00 a 24:00 en mm
DESCASC
19-01-2020 14.3 (00:10) 3.9 (23:00) 9.1 16.11 (05:10) 11.11 (05:20) 1.6 0.2 0.4 0 1
18-01-2020 14 (23:59) 7.5 (05:00) 10.8 7.78 (22:10) 4.72 (22:10) 1.6 0 0.6 1 0
17-01-2020 19.2 (14:30) 7.1 (00:00) 13.2 13.61 (12:30) 9.44 (13:10) 0 0 0 0 0
16-01-2020 18.6 (14:20) 4.9 (00:00) 11.8 6.11 (13:50) 4.17 (16:00) 0 0 0 0 0
15-01-2020 17.1 (15:20) 3.7 (00:00) 10.4 5.83 (14:20) 3.89 (15:00) 0 0 0 0 0
14-01-2020 17 (15:10) 2.5 (00:00) 9.8 4.17 (21:40) 3.06 (09:20) 0 0 0 0 0
13-01-2020 16.5 (15:20) 2.1 (00:00) 9.3 4.17 (04:50) 3.33 (08:20) 0 0 0 0 0
12-01-2020 18.3 (15:20) 3.2 (00:00) 10.7 6.94 (16:00) 5 (16:00) 0 0 0 0 0
11-01-2020 15.8 (15:50) 4.8 (00:00) 10.3 7.5 (04:00) 3.89 (14:40) 0 0 0 0 0
10-01-2020 15.2 (13:10) 5.2 (00:00) 10.2 11.39 (13:40) 8.89 (13:40) 0 0 0 0 0
09-01-2020 16.1 (15:10) 4.3 (00:00) 10.2 5.83 (17:00) 3.89 (17:00) 0 0 0 0 0
08-01-2020 17.8 (13:10) 5.6 (00:00) 11.7 6.67 (14:10) 4.72 (14:30) 0 0 0 0 0
07-01-2020 17.1 (15:30) 5.3 (00:00) 11.2 5.56 (17:00) 3.89 (17:00) 0 0 0 0 0
06-01-2020 16.3 (15:30) 3.6 (00:00) 9.9 5 (17:00) 3.33 (03:30) 0 0 0 0 0
05-01-2020 16.2 (16:00) 3.3 (00:00) 9.8 3.89 (15:40) 3.06 (02:00) 0 0 0 0 0
04-01-2020 11.1 (16:20) 4.4 (00:00) 7.8 4.17 (09:50) 3.33 (08:30) 0 0 0 0 0
03-01-2020 18.2 (15:50) 3.9 (00:00) 11.1 3.61 (22:10) 3.06 (22:00) 0 0 0 0 0
02-01-2020 13 (16:10) 2.2 (00:00) 7.6 3.61 (14:50) 2.22 (23:40) 0.2 0 0.2 0 0
01-01-2020 17.1 (15:30) 3.8 (00:00) 10.5 3.89 (06:30) 3.33 (06:30) 0 0 0 0 0
31-12-2019 14.6 (15:40) 3.6 (00:00) 9.1 6.39 (15:30) 3.61 (02:10) 0 0 0 0 0
30-12-2019 -- (--) -- (--) -- -- (--) -- (--) -- 0 0 -- 0
29-12-2019 16.1 (16:10) 4.5 (00:00) 10.3 5.28 (01:30) 3.89 (09:10) 0 0 0 0 0
28-12-2019 19.4 (14:30) 6.8 (00:00) 13.1 7.5 (16:30) 5 (16:40) 0 0 0 0 0
27-12-2019 19.7 (15:20) 8.3 (00:00) 14 4.17 (04:40) 3.61 (04:40) 0 0 0 0 0
26-12-2019 25.2 (14:20) 11.6 (00:00) 18.4 5.83 (06:10) 3.89 (00:40) 0 0 0 0 0
25-12-2019 23.3 (15:00) 9 (00:00) 16.1 8.06 (23:20) 4.72 (23:20) 0 0 0 0 0
24-12-2019 22.7 (15:30) 8.5 (00:00) 15.6 5 (19:10) 3.89 (19:10) 0 0 0 0 0
23-12-2019 23.1 (13:50) 10.6 (00:00) 16.9 19.72 (00:30) 12.5 (04:30) 0 0 0 0 0
22-12-2019 19.6 (14:40) 12.4 (00:00) 16 24.44 (00:20) 15 (19:00) 0 0 0 0 0

Gráficas

Temp. máximas Temp. mínimas Temp. medias Precipitaciones Rachas de viento máximas Velocidades máximas media en intervalos de 10 minutos

Datos horarios

Fecha y hora oficial Temperatura (ºC) Velocidad del viento (km/h) Dirección del viento Racha (km/h) Dirección de racha Precipitación (mm) Presión (hPa) Tendencia (hPa) Humedad (%)
2020-01-20 23:00:00 5 4 Sudoeste 33 Nordeste 0 -- -- 90
2020-01-20 22:00:00 5.3 14 Nordeste 34 Nordeste 0.4 -- -- 89
2020-01-20 21:00:00 5.3 12 Nordeste 32 Nordeste 0.2 -- -- 88
2020-01-20 20:00:00 5.1 10 Nordeste 28 Este 0.2 -- -- 90
2020-01-20 19:00:00 4.5 11 Nordeste 24 Nordeste 0.4 -- -- 95
2020-01-20 18:00:00 4.1 4 Sudoeste 15 Sudoeste 1 -- -- 95
2020-01-20 17:00:00 4.2 4 Sur 17 Sudoeste 0.4 -- -- 95
2020-01-20 16:00:00 4 9 Sudoeste 20 Sudoeste 0.6 -- -- 94
2020-01-20 15:00:00 4.3 6 Sudoeste 32 Nordeste 0.2 -- -- 91
2020-01-20 14:00:00 4.4 5 Sur 19 Nordeste 0 -- -- 90
2020-01-20 13:00:00 4.6 14 Nordeste 58 Nordeste 1.6 -- -- 87
2020-01-20 12:00:00 5 35 Nordeste 63 Norte 0.2 -- -- 77
2020-01-20 11:00:00 5 39 Nordeste 64 Norte 0 -- -- 73
2020-01-20 10:00:00 5 39 Nordeste 56 Nordeste 0 -- -- 74
2020-01-20 09:00:00 4.1 11 Sudoeste 41 Noroeste 0 -- -- 78
2020-01-20 08:00:00 4.5 12 Oeste 42 Norte 0 -- -- 74
2020-01-20 07:00:00 4.7 5 Oeste 30 Nordeste 0 -- -- 70
2020-01-20 06:00:00 4.8 5 Sudoeste 23 Oeste 0 -- -- 72
2020-01-20 05:00:00 4.4 9 Sudoeste 30 Sur 0 -- -- 76
2020-01-20 04:00:00 4.8 11 Sudoeste 44 Sudoeste 0 -- -- 74
2020-01-20 03:00:00 4 15 Sudoeste 40 Sudoeste 0 -- -- 86
2020-01-20 02:00:00 4.4 20 Oeste 43 Oeste 0.4 -- -- 86
2020-01-20 01:00:00 4.7 10 Sudoeste 40 Sudoeste 0 -- -- 81
2020-01-20 00:00:00 4.1 15 Oeste 34 Oeste 0 -- -- 87
2020-01-19 23:00:00 3.9 11 Sudoeste 45 Norte 0.8 -- -- 88
2020-01-19 22:00:00 4.3 22 Norte 49 Norte 0.2 -- -- 83
2020-01-19 21:00:00 6.3 16 Noroeste 42 Nordeste 0 -- -- 66
2020-01-19 20:00:00 6.7 12 Norte 51 Norte 0 -- -- 62
2020-01-19 19:00:00 7 13 Norte 44 Norte 0 -- -- 62
2020-01-19 18:00:00 8.5 23 Norte 35 Norte 0 -- -- 61
2020-01-19 17:00:00 10.1 34 Norte 48 Norte 0 -- -- 60
2020-01-19 16:00:00 11.7 27 Oeste 43 Oeste 0 -- -- 55
2020-01-19 15:00:00 13.6 24 Oeste 40 Oeste 0 -- -- 47
2020-01-19 14:00:00 13.4 26 Oeste 38 Oeste 0 -- -- 48
2020-01-19 13:00:00 12.9 18 Oeste 40 Sudoeste 0 -- -- 50
2020-01-19 12:00:00 10.7 26 Sudoeste 42 Sudoeste 0 -- -- 62
2020-01-19 11:00:00 9.6 19 Oeste 47 Oeste 0 -- -- 62
2020-01-19 10:00:00 8.2 32 Oeste 47 Oeste 0.2 -- -- 71
2020-01-19 09:00:00 6.6 24 Oeste 31 Oeste 0 -- -- 80
2020-01-19 08:00:00 6.2 15 Oeste 44 Noroeste 0.2 -- -- 84
2020-01-19 07:00:00 9.3 26 Oeste 49 Oeste 0 -- -- 69
2020-01-19 06:00:00 10 23 Oeste 58 Oeste 0 -- -- 63
2020-01-19 05:00:00 11.4 25 Oeste 54 Oeste 0 -- -- 65
2020-01-19 04:00:00 12.1 31 Oeste 57 Oeste 0 -- -- 61
2020-01-19 03:00:00 12.3 29 Oeste 51 Oeste 0.2 -- -- 66
2020-01-19 02:00:00 13.3 21 Oeste 37 Oeste 0 -- -- 71
2020-01-19 01:00:00 13.7 12 Oeste 23 Noroeste 0 -- -- 73
2020-01-19 00:00:00 14 7 Noroeste 24 Noroeste 0 -- -- 73
2020-01-18 23:00:00 12.3 6 Noroeste 28 Oeste 0 -- -- 79
2020-01-18 22:00:00 8.4 5 Nordeste 13 Sudoeste 0 -- -- 90
2020-01-18 21:00:00 8.7 4 Sudoeste 9 Este 0 -- -- 86
2020-01-18 20:00:00 8.6 4 Norte 9 Noroeste 0 -- -- 85
2020-01-18 19:00:00 9 4 Nordeste 6 Norte 0 -- -- 86
2020-01-18 18:00:00 10.5 3 Este 8 Sudeste 0 -- -- 81
2020-01-18 17:00:00 12 2 Sudoeste 5 Sur 0 -- -- 75
2020-01-18 16:00:00 11.6 3 Sudeste 5 Sudeste 0 -- -- 83
2020-01-18 15:00:00 11.2 3 Sur 10 Sudeste 0 -- -- 83
2020-01-18 14:00:00 11.1 4 Sudeste 8 Este 0 -- -- 87
2020-01-18 13:00:00 9.4 6 Noroeste 24 Oeste 1 -- -- 89
2020-01-18 12:00:00 9.4 10 Oeste 14 Oeste 0.6 -- -- 83
2020-01-18 11:00:00 10.1 3 Oeste 8 Noroeste 0 -- -- 68
2020-01-18 10:00:00 9.6 3 Noroeste 14 Oeste 0 -- -- 67
2020-01-18 09:00:00 8.1 5 Oeste 11 Norte 0 -- -- 71
2020-01-18 08:00:00 7.9 5 Noroeste 9 Oeste 0 -- -- 70
2020-01-18 07:00:00 8.4 8 Noroeste 12 Noroeste 0 -- -- 69
2020-01-18 06:00:00 8 4 Norte 12 Norte 0 -- -- 68
2020-01-18 05:00:00 7.5 8 Norte 10 Norte 0 -- -- 69
2020-01-18 04:00:00 8 6 Norte 12 Noroeste 0 -- -- 67
2020-01-18 03:00:00 8.8 7 Noroeste 12 Noroeste 0 -- -- 66
2020-01-18 02:00:00 9.3 8 Noroeste 10 Noroeste 0 -- -- 63
2020-01-18 01:00:00 9.8 8 Norte 11 Noroeste 0 -- -- 60
2020-01-18 00:00:00 9.7 6 Noroeste 14 Noroeste 0 -- -- 58
2020-01-17 23:00:00 9.8 8 Noroeste 15 Noroeste 0 -- -- 59
2020-01-17 22:00:00 10.4 10 Oeste 16 Oeste 0 -- -- 59
2020-01-17 21:00:00 11.2 4 Noroeste 12 Oeste 0 -- -- 59
2020-01-17 20:00:00 12.1 15 Oeste 23 Oeste 0 -- -- 58
2020-01-17 19:00:00 14 10 Oeste 32 Noroeste 0 -- -- 49
2020-01-17 18:00:00 15.7 14 Oeste 37 Oeste 0 -- -- 40
2020-01-17 17:00:00 17.6 29 Oeste 39 Oeste 0 -- -- 36
2020-01-17 16:00:00 18.7 28 Noroeste 42 Oeste 0 -- -- 35
2020-01-17 15:00:00 18.6 30 Oeste 48 Noroeste 0 -- -- 38
2020-01-17 14:00:00 18.6 32 Oeste 48 Oeste 0 -- -- 38
2020-01-17 13:00:00 17.8 33 Oeste 49 Oeste 0 -- -- 39
2020-01-17 12:00:00 17.1 26 Oeste 42 Oeste 0 -- -- 33
2020-01-17 11:00:00 14.7 28 Oeste 39 Oeste 0 -- -- 36
2020-01-17 10:00:00 12.4 18 Sudoeste 44 Oeste 0 -- -- 43
2020-01-17 09:00:00 9.5 22 Oeste 46 Oeste 0 -- -- 51
2020-01-17 08:00:00 9.3 24 Sudoeste 44 Oeste 0 -- -- 56
2020-01-17 07:00:00 9.6 15 Oeste 41 Sudoeste 0 -- -- 57
2020-01-17 06:00:00 9.5 25 Oeste 34 Oeste 0 -- -- 56
2020-01-17 05:00:00 8.3 6 Sudoeste 18 Sudoeste 0 -- -- 58
2020-01-17 04:00:00 8.7 7 Noroeste 24 Oeste 0 -- -- 54
2020-01-17 03:00:00 9.1 20 Oeste 26 Oeste 0 -- -- 53
2020-01-17 02:00:00 8.2 12 Oeste 19 Oeste 0 -- -- 55
2020-01-17 01:00:00 7.2 4 Noroeste 10 Oeste 0 -- -- 57
2020-01-17 00:00:00 7.1 5 Noroeste 14 Noroeste 0 -- -- 58
2020-01-16 23:00:00 7.5 10 Noroeste 15 Noroeste 0 -- -- 61
2020-01-16 22:00:00 7.8 8 Norte 12 Noroeste 0 -- -- 67
2020-01-16 21:00:00 7.8 4 Noroeste 12 Noroeste 0 -- -- 67
2020-01-16 20:00:00 9.3 9 Noroeste 13 Noroeste 0 -- -- 64
2020-01-16 19:00:00 10 8 Norte 14 Nordeste 0 -- -- 63
2020-01-16 18:00:00 13.6 9 Este 17 Este 0 -- -- 55
2020-01-16 17:00:00 16.3 10 Este 21 Este 0 -- -- 47
2020-01-16 16:00:00 17.7 15 Este 21 Este 0 -- -- 39
2020-01-16 15:00:00 18.2 9 Este 19 Este 0 -- -- 33
2020-01-16 14:00:00 18.2 8 Sudeste 22 Este 0 -- -- 33
2020-01-16 13:00:00 17.6 6 Sudeste 13 Sudeste 0 -- -- 34
2020-01-16 12:00:00 16.1 6 Sudeste 10 Este 0 -- -- 41
2020-01-16 11:00:00 12.2 0 Calma 5 Sur 0 -- -- 50
2020-01-16 10:00:00 8.6 3 Oeste 13 Noroeste 0 -- -- 59
2020-01-16 09:00:00 5.4 9 Noroeste 14 Noroeste 0 -- -- 62
2020-01-16 08:00:00 5.7 5 Noroeste 13 Norte 0 -- -- 60
2020-01-16 07:00:00 5.6 4 Oeste 13 Noroeste 0 -- -- 59
2020-01-16 06:00:00 6.5 11 Noroeste 16 Noroeste 0 -- -- 55
2020-01-16 05:00:00 6.9 9 Noroeste 16 Noroeste 0 -- -- 53
2020-01-16 04:00:00 6.6 11 Noroeste 14 Noroeste 0 -- -- 54
2020-01-16 03:00:00 5.7 9 Oeste 13 Oeste 0 -- -- 57
2020-01-16 02:00:00 6.3 10 Noroeste 17 Noroeste 0 -- -- 55
2020-01-16 01:00:00 5.9 9 Noroeste 15 Noroeste 0 -- -- 57
2020-01-16 00:00:00 6.2 9 Noroeste 15 Noroeste 0 -- -- 58
2020-01-15 23:00:00 6.1 7 Norte 14 Norte 0 -- -- 62
2020-01-15 22:00:00 7.1 9 Noroeste 13 Noroeste 0 -- -- 67
2020-01-15 21:00:00 7.6 10 Noroeste 14 Noroeste 0 -- -- 69
2020-01-15 20:00:00 8.6 8 Norte 10 Norte 0 -- -- 69
2020-01-15 19:00:00 9.4 7 Norte 12 Nordeste 0 -- -- 70
2020-01-15 18:00:00 12.7 9 Este 16 Este 0 -- -- 59
2020-01-15 17:00:00 15.1 12 Este 21 Este 0 -- -- 50
2020-01-15 16:00:00 16.2 13 Este 20 Este 0 -- -- 41
2020-01-15 15:00:00 16.7 14 Este 21 Este 0 -- -- 37
2020-01-15 14:00:00 16.8 10 Este 18 Este 0 -- -- 40
2020-01-15 13:00:00 15.8 7 Sudeste 13 Sudeste 0 -- -- 45
2020-01-15 12:00:00 14 6 Sudeste 10 Este 0 -- -- 50
2020-01-15 11:00:00 10.6 3 Sudoeste 5 Sur 0 -- -- 63
2020-01-15 10:00:00 7.4 0 Calma 11 Nordeste 0 -- -- 71
2020-01-15 09:00:00 5.1 2 Norte 6 Noroeste 0 -- -- 74
2020-01-15 08:00:00 4.5 2 Norte 9 Noroeste 0 -- -- 74
2020-01-15 07:00:00 4 5 Oeste 10 Noroeste 0 -- -- 74
2020-01-15 06:00:00 4.4 8 Noroeste 11 Norte 0 -- -- 70
2020-01-15 05:00:00 4.5 7 Noroeste 10 Noroeste 0 -- -- 67
2020-01-15 04:00:00 4.1 6 Noroeste 14 Noroeste 0 -- -- 69
2020-01-15 03:00:00 4.6 12 Noroeste 17 Noroeste 0 -- -- 67
2020-01-15 02:00:00 5.2 12 Noroeste 14 Noroeste 0 -- -- 66
2020-01-15 01:00:00 5.1 7 Noroeste 14 Noroeste 0 -- -- 67
2020-01-15 00:00:00 5 2 Noroeste 13 Oeste 0 -- -- 72
2020-01-14 23:00:00 6.2 8 Noroeste 15 Oeste 0 -- -- 68
2020-01-14 22:00:00 6.6 5 Oeste 15 Oeste 0 -- -- 66
2020-01-14 21:00:00 6.7 7 Oeste 12 Oeste 0 -- -- 68
2020-01-14 20:00:00 7.9 5 Noroeste 10 Noroeste 0 -- -- 69
2020-01-14 19:00:00 9.6 0 Calma 9 Sudoeste 0 -- -- 64
2020-01-14 18:00:00 11.6 3 Este 8 Sudeste 0 -- -- 65
2020-01-14 17:00:00 13.6 6 Este 12 Este 0 -- -- 56
2020-01-14 16:00:00 15.4 5 Sudeste 12 Sudeste 0 -- -- 39
2020-01-14 15:00:00 16.8 5 Sur 14 Sudeste 0 -- -- 31
2020-01-14 14:00:00 15.5 4 Sudeste 11 Sudoeste 0 -- -- 35
2020-01-14 13:00:00 14.7 4 Sur 10 Sudoeste 0 -- -- 38
2020-01-14 12:00:00 12.8 4 Sudoeste 9 Sudeste 0 -- -- 43
2020-01-14 11:00:00 9.9 6 Sudoeste 10 Sudoeste 0 -- -- 49
2020-01-14 10:00:00 6.2 4 Sudoeste 13 Noroeste 0 -- -- 59
2020-01-14 09:00:00 2.5 7 Noroeste 13 Norte 0 -- -- 66
2020-01-14 08:00:00 2.7 7 Norte 11 Norte 0 -- -- 63
2020-01-14 07:00:00 2.7 4 Noroeste 10 Norte 0 -- -- 63
2020-01-14 06:00:00 3.2 6 Norte 14 Norte 0 -- -- 62
2020-01-14 05:00:00 4.1 6 Norte 10 Norte 0 -- -- 60
2020-01-14 04:00:00 3.7 7 Noroeste 9 Noroeste 0 -- -- 61
2020-01-14 03:00:00 4 3 Norte 10 Noroeste 0 -- -- 60
2020-01-14 02:00:00 3.8 5 Noroeste 12 Noroeste 0 -- -- 61
2020-01-14 01:00:00 4.8 9 Noroeste 12 Noroeste 0 -- -- 60
2020-01-14 00:00:00 4.9 6 Noroeste 13 Noroeste 0 -- -- 64
2020-01-13 23:00:00 5 10 Noroeste 13 Noroeste 0 -- -- 75
2020-01-13 22:00:00 6.1 0 Calma 8 Oeste 0 -- -- 70
2020-01-13 21:00:00 7.4 4 Noroeste 11 Noroeste 0 -- -- 68
2020-01-13 20:00:00 7.8 9 Noroeste 13 Noroeste 0 -- -- 75
2020-01-13 19:00:00 9.6 4 Norte 7 Este 0 -- -- 70
2020-01-13 18:00:00 12.1 5 Este 10 Sudeste 0 -- -- 62
2020-01-13 17:00:00 14.8 6 Sudeste 14 Sudeste 0 -- -- 53
2020-01-13 16:00:00 15.9 6 Sudeste 12 Este 0 -- -- 45
2020-01-13 15:00:00 16.2 5 Sudeste 13 Sudeste 0 -- -- 39
2020-01-13 14:00:00 15.2 6 Sudeste 11 Sudeste 0 -- -- 38
2020-01-13 13:00:00 14.5 5 Sudeste 12 Sudeste 0 -- -- 39
2020-01-13 12:00:00 12.6 3 Sudeste 8 Este 0 -- -- 46
2020-01-13 11:00:00 9.4 3 Sur 8 Sur 0 -- -- 57
2020-01-13 10:00:00 5.9 4 Noroeste 11 Noroeste 0 -- -- 67
2020-01-13 09:00:00 3.4 6 Noroeste 15 Noroeste 0 -- -- 69
2020-01-13 08:00:00 2.3 6 Noroeste 11 Norte 0 -- -- 73
2020-01-13 07:00:00 2.7 8 Noroeste 12 Noroeste 0 -- -- 73
2020-01-13 06:00:00 3.2 5 Noroeste 11 Noroeste 0 -- -- 72
2020-01-13 05:00:00 3.8 7 Norte 15 Noroeste 0 -- -- 72
2020-01-13 04:00:00 3.7 4 Noroeste 10 Noroeste 0 -- -- 77
2020-01-13 03:00:00 4.1 7 Noroeste 12 Noroeste 0 -- -- 78
2020-01-13 02:00:00 4.7 9 Noroeste 12 Noroeste 0 -- -- 77
2020-01-13 01:00:00 4.8 3 Oeste 12 Noroeste 0 -- -- 75
2020-01-13 00:00:00 5.2 10 Norte 14 Noroeste 0 -- -- 74
2020-01-12 23:00:00 6 10 Noroeste 13 Noroeste 0 -- -- 73
2020-01-12 22:00:00 5.6 6 Norte 10 Norte 0 -- -- 75
2020-01-12 21:00:00 6.8 6 Oeste 13 Noroeste 0 -- -- 73
2020-01-12 20:00:00 7.7 9 Norte 12 Nordeste 0 -- -- 76
2020-01-12 19:00:00 9.5 7 Nordeste 15 Este 0 -- -- 65
2020-01-12 18:00:00 12.2 10 Este 19 Este 0 -- -- 57
2020-01-12 17:00:00 15.2 12 Sudeste 24 Este 0 -- -- 50
2020-01-12 16:00:00 16.6 18 Este 25 Este 0 -- -- 40
2020-01-12 15:00:00 18.2 9 Sudoeste 21 Sudoeste 0 -- -- 32
2020-01-12 14:00:00 17 9 Sudoeste 20 Sudoeste 0 -- -- 36
2020-01-12 13:00:00 15.8 5 Sudeste 13 Sudoeste 0 -- -- 40
2020-01-12 12:00:00 14.2 3 Este 8 Sudoeste 0 -- -- 46
2020-01-12 11:00:00 10.6 2 Sudeste 6 Sur 0 -- -- 60
2020-01-12 10:00:00 6.4 2 Oeste 13 Noroeste 0 -- -- 69
2020-01-12 09:00:00 3.7 5 Noroeste 9 Noroeste 0 -- -- 71
2020-01-12 08:00:00 3.4 8 Noroeste 12 Noroeste 0 -- -- 71
2020-01-12 07:00:00 3.9 8 Noroeste 12 Noroeste 0 -- -- 69
2020-01-12 06:00:00 3.5 8 Noroeste 10 Noroeste 0 -- -- 72
2020-01-12 05:00:00 4.3 4 Noroeste 10 Noroeste 0 -- -- 70
2020-01-12 04:00:00 4.9 10 Noroeste 13 Noroeste 0 -- -- 68
2020-01-12 03:00:00 5 10 Noroeste 14 Noroeste 0 -- -- 67
2020-01-12 02:00:00 5.1 12 Noroeste 15 Noroeste 0 -- -- 69
2020-01-12 01:00:00 4.9 8 Noroeste 12 Noroeste 0 -- -- 74
2020-01-12 00:00:00 4.8 8 Noroeste 12 Norte 0 -- -- 78
2020-01-11 23:00:00 5.8 10 Noroeste 15 Noroeste 0 -- -- 76
2020-01-11 22:00:00 6.1 12 Noroeste 15 Noroeste 0 -- -- 76
2020-01-11 21:00:00 6.8 9 Norte 12 Noroeste 0 -- -- 74
2020-01-11 20:00:00 7.2 5 Norte 8 Nordeste 0 -- -- 71
2020-01-11 19:00:00 8.9 4 Este 10 Sudeste 0 -- -- 65
2020-01-11 18:00:00 11.7 8 Sudeste 19 Sudeste 0 -- -- 55
2020-01-11 17:00:00 14.6 9 Sudeste 24 Sudeste 0 -- -- 44
2020-01-11 16:00:00 15.6 12 Este 22 Este 0 -- -- 41
2020-01-11 15:00:00 14.6 13 Nordeste 22 Este 0 -- -- 42
2020-01-11 14:00:00 14.7 7 Nordeste 23 Este 0 -- -- 42
2020-01-11 13:00:00 14.5 8 Este 17 Este 0 -- -- 48
2020-01-11 12:00:00 12.9 5 Sudeste 17 Nordeste 0 -- -- 54
2020-01-11 11:00:00 11.9 6 Norte 12 Noroeste 0 -- -- 58
2020-01-11 10:00:00 8.7 3 Norte 13 Noroeste 0 -- -- 69
2020-01-11 09:00:00 8 3 Oeste 12 Oeste 0 -- -- 69
2020-01-11 08:00:00 8.1 3 Noroeste 14 Sudoeste 0 -- -- 68
2020-01-11 07:00:00 8.1 7 Sudoeste 14 Sudoeste 0 -- -- 67
2020-01-11 06:00:00 8.6 4 Oeste 12 Norte 0 -- -- 66
2020-01-11 05:00:00 9.1 8 Nordeste 22 Norte 0 -- -- 62
2020-01-11 04:00:00 9.2 13 Norte 27 Norte 0 -- -- 60
2020-01-11 03:00:00 9 9 Norte 18 Noroeste 0 -- -- 60
2020-01-11 02:00:00 7.8 4 Noroeste 17 Noroeste 0 -- -- 64
2020-01-11 01:00:00 8 9 Oeste 23 Norte 0 -- -- 62
2020-01-11 00:00:00 8.5 12 Noroeste 23 Norte 0 -- -- 56
2020-01-10 23:00:00 7.8 10 Nordeste 22 Norte 0 -- -- 55
2020-01-10 22:00:00 7.8 16 Norte 23 Norte 0 -- -- 54
2020-01-10 21:00:00 8.8 12 Noroeste 18 Norte 0 -- -- 50
2020-01-10 20:00:00 8 8 Norte 23 Nordeste 0 -- -- 55
2020-01-10 19:00:00 8.4 5 Norte 9 Este 0 -- -- 75
2020-01-10 18:00:00 10.5 5 Este 18 Este 0 -- -- 68
2020-01-10 17:00:00 12.2 11 Este 21 Este 0 -- -- 63
2020-01-10 16:00:00 13.1 10 Sudeste 34 Sudoeste 0 -- -- 58
2020-01-10 15:00:00 13.5 25 Sudoeste 38 Sudoeste 0 -- -- 56
2020-01-10 14:00:00 13.7 27 Sudoeste 41 Sudoeste 0 -- -- 57
2020-01-10 13:00:00 15 29 Sudoeste 39 Sudoeste 0 -- -- 56
2020-01-10 12:00:00 13.6 25 Sudoeste 36 Sudoeste 0 -- -- 59
2020-01-10 11:00:00 11.7 23 Sudoeste 36 Sudoeste 0 -- -- 64
2020-01-10 10:00:00 8.7 10 Oeste 17 Oeste 0 -- -- 74
2020-01-10 09:00:00 6.2 12 Noroeste 28 Noroeste 0 -- -- 75
2020-01-10 08:00:00 8.4 21 Oeste 32 Oeste 0 -- -- 73
2020-01-10 07:00:00 5.4 12 Noroeste 18 Oeste 0 -- -- 82
2020-01-10 06:00:00 7.2 9 Noroeste 32 Oeste 0 -- -- 79
2020-01-10 05:00:00 7.4 26 Oeste 38 Oeste 0 -- -- 81
2020-01-10 04:00:00 6.1 10 Noroeste 14 Noroeste 0 -- -- 87
2020-01-10 03:00:00 6.1 5 Norte 10 Sudoeste 0 -- -- 91
2020-01-10 02:00:00 6.5 4 Nordeste 11 Nordeste 0 -- -- 90
2020-01-10 01:00:00 6.4 6 Noroeste 12 Noroeste 0 -- -- 92
2020-01-10 00:00:00 6.9 11 Noroeste 13 Noroeste 0 -- -- 91
2020-01-09 23:00:00 7.8 0 Calma 4 Norte 0 -- -- 87
2020-01-09 22:00:00 8.8 0 Calma 4 Sudoeste 0 -- -- 87
2020-01-09 21:00:00 9 0 Calma 4 Noroeste 0 -- -- 86
2020-01-09 20:00:00 8.9 2 Norte 13 Este 0 -- -- 89
2020-01-09 19:00:00 8.8 5 Este 17 Este 0 -- -- 87
2020-01-09 18:00:00 10.8 10 Este 18 Este 0 -- -- 76
2020-01-09 17:00:00 13.4 14 Este 21 Este 0 -- -- 65
2020-01-09 16:00:00 15.3 10 Sudeste 19 Este 0 -- -- 59
2020-01-09 15:00:00 15.9 7 Sudeste 17 Sudeste 0 -- -- 56
2020-01-09 14:00:00 15 4 Oeste 12 Sur 0 -- -- 58
2020-01-09 13:00:00 14.3 3 Sudoeste 10 Este 0 -- -- 60
2020-01-09 12:00:00 13.1 4 Sudeste 16 Este 0 -- -- 63
2020-01-09 11:00:00 10 3 Este 6 Este 0 -- -- 77
2020-01-09 10:00:00 6.2 2 Sudeste 5 Noroeste 0 -- -- 86
2020-01-09 09:00:00 4.9 3 Oeste 12 Noroeste 0 -- -- 85
2020-01-09 08:00:00 5.4 7 Noroeste 12 Noroeste 0 -- -- 83
2020-01-09 07:00:00 5.8 6 Noroeste 9 Noroeste 0 -- -- 80
2020-01-09 06:00:00 5.3 7 Noroeste 10 Noroeste 0 -- -- 80
2020-01-09 05:00:00 5.5 5 Noroeste 14 Noroeste 0 -- -- 80
2020-01-09 04:00:00 5.7 10 Noroeste 16 Noroeste 0 -- -- 80
2020-01-09 03:00:00 4.9 12 Noroeste 14 Noroeste 0 -- -- 82
2020-01-09 02:00:00 4.9 6 Norte 9 Norte 0 -- -- 82
2020-01-09 01:00:00 5 4 Norte 8 Norte 0 -- -- 76
2020-01-09 00:00:00 5.6 6 Norte 8 Norte 0 -- -- 78
2020-01-08 23:00:00 6.2 5 Norte 14 Noroeste 0 -- -- 79
2020-01-08 22:00:00 7 11 Noroeste 14 Noroeste 0 -- -- 86
2020-01-08 21:00:00 7.5 7 Noroeste 10 Noroeste 0 -- -- 87
2020-01-08 20:00:00 8 3 Noroeste 6 Noroeste 0 -- -- 85
2020-01-08 19:00:00 9.3 0 Calma 15 Este 0 -- -- 82
2020-01-08 18:00:00 11.9 6 Este 10 Sudeste 0 -- -- 70
2020-01-08 17:00:00 14.2 6 Sudeste 17 Sudeste 0 -- -- 64
2020-01-08 16:00:00 15.8 8 Sudeste 21 Este 0 -- -- 59
2020-01-08 15:00:00 15.9 15 Este 24 Sudeste 0 -- -- 56
2020-01-08 14:00:00 17.4 14 Este 22 Este 0 -- -- 42
2020-01-08 13:00:00 17.7 8 Sudeste 13 Sudeste 0 -- -- 39
2020-01-08 12:00:00 16.9 5 Sudeste 10 Sudeste 0 -- -- 39
2020-01-08 11:00:00 13.4 2 Sudeste 4 Sur 0 -- -- 47
2020-01-08 10:00:00 10 0 Calma 10 Noroeste 0 -- -- 56
2020-01-08 09:00:00 6.8 6 Noroeste 14 Noroeste 0 -- -- 56
2020-01-08 08:00:00 6.9 12 Noroeste 15 Noroeste 0 -- -- 54
2020-01-08 07:00:00 6.3 10 Norte 13 Noroeste 0 -- -- 57
2020-01-08 06:00:00 7.3 9 Norte 13 Norte 0 -- -- 54
2020-01-08 05:00:00 7.4 11 Noroeste 14 Noroeste 0 -- -- 54
2020-01-08 04:00:00 7.3 11 Noroeste 13 Noroeste 0 -- -- 55
2020-01-08 03:00:00 6.8 10 Norte 13 Noroeste 0 -- -- 58
2020-01-08 02:00:00 6.8 4 Noroeste 10 Noroeste 0 -- -- 59
2020-01-08 01:00:00 6.3 4 Norte 7 Nordeste 0 -- -- 68
2020-01-08 00:00:00 6.5 0 Calma 9 Norte 0 -- -- 67
2020-01-07 23:00:00 6.6 6 Nordeste 10 Norte 0 -- -- 77
2020-01-07 22:00:00 7.1 9 Noroeste 13 Noroeste 0 -- -- 76
2020-01-07 21:00:00 7.4 7 Noroeste 9 Noroeste 0 -- -- 79
2020-01-07 20:00:00 8 5 Oeste 6 Oeste 0 -- -- 79
2020-01-07 19:00:00 9.7 0 Calma 8 Este 0 -- -- 78
2020-01-07 18:00:00 11.8 6 Este 18 Este 0 -- -- 69
2020-01-07 17:00:00 15.2 14 Este 20 Este 0 -- -- 54
2020-01-07 16:00:00 16.4 7 Este 11 Este 0 -- -- 45
2020-01-07 15:00:00 16.8 8 Sur 16 Sur 0 -- -- 42
2020-01-07 14:00:00 16.3 7 Sudeste 14 Sudeste 0 -- -- 42
2020-01-07 13:00:00 15.6 6 Sur 11 Sur 0 -- -- 42
2020-01-07 12:00:00 14.4 4 Sudeste 10 Este 0 -- -- 44
2020-01-07 11:00:00 12 4 Sur 7 Sudeste 0 -- -- 48
2020-01-07 10:00:00 9.8 3 Este 8 Norte 0 -- -- 50
2020-01-07 09:00:00 6 9 Norte 15 Norte 0 -- -- 51
2020-01-07 08:00:00 5.4 10 Norte 15 Norte 0 -- -- 51
2020-01-07 07:00:00 5.9 6 Norte 16 Noroeste 0 -- -- 50
2020-01-07 06:00:00 5.8 11 Norte 15 Norte 0 -- -- 53
2020-01-07 05:00:00 5.8 6 Norte 10 Norte 0 -- -- 52
2020-01-07 04:00:00 6.1 5 Noroeste 14 Norte 0 -- -- 53
2020-01-07 03:00:00 6.4 8 Noroeste 15 Noroeste 0 -- -- 52
2020-01-07 02:00:00 6 9 Noroeste 13 Norte 0 -- -- 54
2020-01-07 01:00:00 5.7 9 Noroeste 11 Noroeste 0 -- -- 60
2020-01-07 00:00:00 5.8 7 Noroeste 13 Noroeste 0 -- -- 69
2020-01-06 23:00:00 5.3 4 Noroeste 9 Norte 0 -- -- 79
2020-01-06 22:00:00 5.2 8 Nordeste 9 Nordeste 0 -- -- 79
2020-01-06 21:00:00 6.8 4 Noroeste 9 Noroeste 0 -- -- 76
2020-01-06 20:00:00 7.5 5 Noroeste 6 Noroeste 0 -- -- 75
2020-01-06 19:00:00 8.5 4 Norte 10 Este 0 -- -- 76
2020-01-06 18:00:00 11.2 8 Este 16 Este 0 -- -- 65
2020-01-06 17:00:00 14.3 11 Este 18 Este 0 -- -- 52
2020-01-06 16:00:00 16.1 6 Sudeste 16 Sudeste 0 -- -- 37
2020-01-06 15:00:00 15.7 3 Este 11 Sur 0 -- -- 39
2020-01-06 14:00:00 15.7 7 Sur 13 Sudeste 0 -- -- 40
2020-01-06 13:00:00 14.8 8 Sudeste 14 Este 0 -- -- 42
2020-01-06 12:00:00 13.5 5 Sudeste 8 Sudeste 0 -- -- 47
2020-01-06 11:00:00 10.6 3 Sur 6 Sur 0 -- -- 50
2020-01-06 10:00:00 7.1 2 Noroeste 10 Norte 0 -- -- 58